To NAV CANADA Home Page Login to a new session Search on AWWS site Feedback and Comments Disclaimer Vers la page française équivalente Tips FAQ What's new on the site To the Forecasts and Observations / NOTAM section To "File a Flight Plan" website Publications and other links Update of the User's profile FIC Telephone Numbers My Weather Data Folder Route Weather Data Regional Weather Data Local Weather Data To the Forecasts and Observations / NOTAM section
Request Generated 04/19/2014 at 06:54:22 UTC . Weather information available at that time is displayed.

METAR/TAF

WINDSOR/ON    

METAR CYQG 190600Z 04013KT 12SM BKN043 03/01 A3038 RMK SC5 SLP294=
METAR CYQG 190500Z 03014KT 12SM BKN049 04/00 A3038 RMK SC5 SLP290=
METAR CYQG 190400Z 04019KT 12SM SCT052 BKN070 04/01 A3035 RMK SC3AC2 SLP283=

TAF CYQG 190538Z 1906/2006 04015KT P6SM SCT050
FM191500 05012KT P6SM SKC
BECMG 1921/1923 10008KT
RMK NXT FCST BY 191200Z=
Your time UTC time
Weather data provided by Environment Canada and NAV CANADA